• Join FlightAware (Why Join?)
  • Login
  • US Flag GB Flag 
08:55 EDT


 

Airport Tracker/Info


-or-


 

Live Flight TrackerFlight Track Log ✈ N612CT ✈ 20-Sep-2013 ✈ KSRQ - KAPF

Flight Track Log - Related Links

Times and Time Zones

All times are in EDT time to prevent confusion due to time zone crossing. See the N612CT flight status page for this flight to view local times or setup timezone preferences in your user account.

Time Position Orientation Groundspeed Altitude Reporting Facility
EDT Latitude Longitude Course Direction KTS MPH feet Rate Location/Type
22:54 27.3833 -82.5500 158° South 95 109 400  Level Tampa TRACON
22:55 27.3667 -82.5500 180° South 128 147 1,300 840 Climbing Tampa TRACON
22:56 27.3333 -82.5500 180° South 124 143 2,000 780 Climbing Tampa TRACON
22:57 27.3000 -82.5500 180° South 128 147 2,800 660 Climbing Tampa TRACON
22:58 27.2500 -82.5333 163° South 138 159 3,400 600 Climbing Tampa TRACON
22:59 27.2167 -82.5167 156° South 140 161 4,100 660 Climbing Tampa TRACON
23:00 27.1347 -82.3894 158° South  Level Estimated
23:01 27.1646 -82.4800 119° Southeast  Level Estimated
23:08 26.9159 -82.3056 159° South  Level Estimated
23:09 26.8821 -82.2779 144° Southeast  Level FlightAware Approximate
23:10 26.8482 -82.2503 144° Southeast  Level FlightAware Approximate
23:11 26.8144 -82.2227 144° Southeast  Level FlightAware Approximate
23:12 26.7805 -82.1951 144° Southeast  Level FlightAware Approximate
23:13 26.7466 -82.1675 144° Southeast  Level FlightAware Approximate
23:14 26.7127 -82.1399 144° Southeast  Level FlightAware Approximate
23:15 26.6788 -82.1124 144° Southeast  Level FlightAware Approximate
23:16 26.6449 -82.0849 144° Southeast  Level FlightAware Approximate
23:17 26.6110 -82.0573 144° Southeast  Level FlightAware Approximate
23:18 26.5771 -82.0298 144° Southeast  Level FlightAware Approximate
23:19 26.5432 -82.0024 144° Southeast  Level FlightAware Approximate
23:20 26.5093 -81.9749 144° Southeast  Level FlightAware Approximate
23:21 26.4753 -81.9474 144° Southeast  Level FlightAware Approximate
23:22 26.4414 -81.9200 144° Southeast  Level FlightAware Approximate
23:23 26.4075 -81.8926 144° Southeast  Level FlightAware Approximate
23:24 26.4026 -81.8929 156° South  Level FlightAware Approximate
23:25 26.3644 -81.8738 156° South  Level FlightAware Approximate
23:26 26.3261 -81.8547 156° South  Level FlightAware Approximate
23:27 26.2879 -81.8356 156° South  Level FlightAware Approximate
23:28 26.2497 -81.8165 156° South  Level FlightAware Approximate
23:29 26.2115 -81.7974 156° South  Level FlightAware Approximate